sensor_id;sensor_type;location;lat;lon;timestamp;P1;P2;P0
39955;PMS5003;25631;51.516;-0.470;2023-04-12T00:00:36;6;5;
39955;PMS5003;25631;51.516;-0.470;2023-04-12T00:03:12;3;3;
39955;PMS5003;25631;51.516;-0.470;2023-04-12T00:05:49;5;3;
39955;PMS5003;25631;51.516;-0.470;2023-04-12T00:08:25;6;4;
39955;PMS5003;25631;51.516;-0.470;2023-04-12T00:11:02;6;4;
39955;PMS5003;25631;51.516;-0.470;2023-04-12T00:13:38;4;4;
39955;PMS5003;25631;51.516;-0.470;2023-04-12T00:16:15;4;2;
39955;PMS5003;25631;51.516;-0.470;2023-04-12T00:18:51;6;6;
39955;PMS5003;25631;51.516;-0.470;2023-04-12T00:21:28;5;5;
39955;PMS5003;25631;51.516;-0.470;2023-04-12T00:24:04;5;4;
39955;PMS5003;25631;51.516;-0.470;2023-04-12T00:26:41;8;5;
39955;PMS5003;25631;51.516;-0.470;2023-04-12T00:29:18;7;4;
39955;PMS5003;25631;51.516;-0.470;2023-04-12T00:31:54;5;4;
39955;PMS5003;25631;51.516;-0.470;2023-04-12T00:34:31;5;4;
39955;PMS5003;25631;51.516;-0.470;2023-04-12T00:37:07;4;3;
39955;PMS5003;25631;51.516;-0.470;2023-04-12T00:39:44;3;2;
39955;PMS5003;25631;51.516;-0.470;2023-04-12T00:42:21;4;3;
39955;PMS5003;25631;51.516;-0.470;2023-04-12T00:44:57;4;2;
39955;PMS5003;25631;51.516;-0.470;2023-04-12T00:47:34;5;3;
39955;PMS5003;25631;51.516;-0.470;2023-04-12T00:50:11;4;2;
39955;PMS5003;25631;51.516;-0.470;2023-04-12T00:52:48;3;2;
39955;PMS5003;25631;51.516;-0.470;2023-04-12T00:55:26;3;3;
39955;PMS5003;25631;51.516;-0.470;2023-04-12T00:58:02;6;2;
39955;PMS5003;25631;51.516;-0.470;2023-04-12T01:00:39;4;2;
39955;PMS5003;25631;51.516;-0.470;2023-04-12T01:03:15;4;2;
39955;PMS5003;25631;51.516;-0.470;2023-04-12T01:05:56;4;2;
39955;PMS5003;25631;51.516;-0.470;2023-04-12T01:08:48;2;2;
39955;PMS5003;25631;51.516;-0.470;2023-04-12T01:11:35;2;2;
39955;PMS5003;25631;51.516;-0.470;2023-04-12T01:14:16;1;1;
39955;PMS5003;25631;51.516;-0.470;2023-04-12T01:16:59;2;2;
39955;PMS5003;25631;51.516;-0.470;2023-04-12T01:19:46;2;2;
39955;PMS5003;25631;51.516;-0.470;2023-04-12T01:22:37;2;2;
39955;PMS5003;25631;51.516;-0.470;2023-04-12T01:25:33;5;2;
39955;PMS5003;25631;51.516;-0.470;2023-04-12T01:28:14;3;2;
39955;PMS5003;25631;51.516;-0.470;2023-04-12T01:30:55;3;2;
39955;PMS5003;25631;51.516;-0.470;2023-04-12T01:33:31;4;3;
39955;PMS5003;25631;51.516;-0.470;2023-04-12T01:36:12;3;2;
39955;PMS5003;25631;51.516;-0.470;2023-04-12T01:38:51;4;2;
39955;PMS5003;25631;51.516;-0.470;2023-04-12T01:41:29;4;2;
39955;PMS5003;25631;51.516;-0.470;2023-04-12T01:44:07;4;2;
39955;PMS5003;25631;51.516;-0.470;2023-04-12T01:46:43;4;4;
39955;PMS5003;25631;51.516;-0.470;2023-04-12T01:49:20;5;4;
39955;PMS5003;25631;51.516;-0.470;2023-04-12T01:52:02;3;2;
39955;PMS5003;25631;51.516;-0.470;2023-04-12T01:54:44;5;1;
39955;PMS5003;25631;51.516;-0.470;2023-04-12T01:57:25;5;1;
39955;PMS5003;25631;51.516;-0.470;2023-04-12T02:00:02;4;3;
39955;PMS5003;25631;51.516;-0.470;2023-04-12T02:02:39;6;3;
39955;PMS5003;25631;51.516;-0.470;2023-04-12T02:05:16;6;3;
39955;PMS5003;25631;51.516;-0.470;2023-04-12T02:07:53;5;4;
39955;PMS5003;25631;51.516;-0.470;2023-04-12T02:10:32;5;3;
39955;PMS5003;25631;51.516;-0.470;2023-04-12T02:13:08;4;3;
39955;PMS5003;25631;51.516;-0.470;2023-04-12T02:15:45;3;3;
39955;PMS5003;25631;51.516;-0.470;2023-04-12T02:18:22;3;2;
39955;PMS5003;25631;51.516;-0.470;2023-04-12T02:20:59;7;5;
39955;PMS5003;25631;51.516;-0.470;2023-04-12T02:23:35;8;6;
39955;PMS5003;25631;51.516;-0.470;2023-04-12T02:26:12;5;5;
39955;PMS5003;25631;51.516;-0.470;2023-04-12T02:28:48;6;5;
39955;PMS5003;25631;51.516;-0.470;2023-04-12T02:31:25;5;4;
39955;PMS5003;25631;51.516;-0.470;2023-04-12T02:34:01;7;5;
39955;PMS5003;25631;51.516;-0.470;2023-04-12T02:36:38;6;5;
39955;PMS5003;25631;51.516;-0.470;2023-04-12T02:39:15;6;5;
39955;PMS5003;25631;51.516;-0.470;2023-04-12T02:41:51;5;3;
39955;PMS5003;25631;51.516;-0.470;2023-04-12T02:44:28;5;4;
39955;PMS5003;25631;51.516;-0.470;2023-04-12T02:47:04;6;3;
39955;PMS5003;25631;51.516;-0.470;2023-04-12T02:49:41;7;3;
39955;PMS5003;25631;51.516;-0.470;2023-04-12T02:52:17;7;3;
39955;PMS5003;25631;51.516;-0.470;2023-04-12T02:54:54;7;4;
39955;PMS5003;25631;51.516;-0.470;2023-04-12T02:57:31;5;3;
39955;PMS5003;25631;51.516;-0.470;2023-04-12T03:00:08;4;3;
39955;PMS5003;25631;51.516;-0.470;2023-04-12T03:02:46;4;3;
39955;PMS5003;25631;51.516;-0.470;2023-04-12T03:05:23;5;4;
39955;PMS5003;25631;51.516;-0.470;2023-04-12T03:08:00;3;1;
39955;PMS5003;25631;51.516;-0.470;2023-04-12T03:10:36;3;1;
39955;PMS5003;25631;51.516;-0.470;2023-04-12T03:13:13;1;0;
39955;PMS5003;25631;51.516;-0.470;2023-04-12T03:15:53;6;4;
39955;PMS5003;25631;51.516;-0.470;2023-04-12T03:18:31;7;5;
39955;PMS5003;25631;51.516;-0.470;2023-04-12T03:21:08;7;6;
39955;PMS5003;25631;51.516;-0.470;2023-04-12T03:23:44;6;6;
39955;PMS5003;25631;51.516;-0.470;2023-04-12T03:26:21;6;5;
39955;PMS5003;25631;51.516;-0.470;2023-04-12T03:28:58;2;2;
39955;PMS5003;25631;51.516;-0.470;2023-04-12T03:31:36;2;1;
39955;PMS5003;25631;51.516;-0.470;2023-04-12T03:34:12;4;2;
39955;PMS5003;25631;51.516;-0.470;2023-04-12T03:36:49;5;3;
39955;PMS5003;25631;51.516;-0.470;2023-04-12T03:39:25;4;2;
39955;PMS5003;25631;51.516;-0.470;2023-04-12T03:42:02;2;1;
39955;PMS5003;25631;51.516;-0.470;2023-04-12T03:44:38;2;1;
39955;PMS5003;25631;51.516;-0.470;2023-04-12T03:47:15;3;1;
39955;PMS5003;25631;51.516;-0.470;2023-04-12T03:49:53;6;3;
39955;PMS5003;25631;51.516;-0.470;2023-04-12T03:52:30;5;3;
39955;PMS5003;25631;51.516;-0.470;2023-04-12T03:55:07;0;0;
39955;PMS5003;25631;51.516;-0.470;2023-04-12T03:57:44;1;0;
39955;PMS5003;25631;51.516;-0.470;2023-04-12T04:00:20;1;0;
39955;PMS5003;25631;51.516;-0.470;2023-04-12T04:02:57;0;0;
39955;PMS5003;25631;51.516;-0.470;2023-04-12T04:05:34;0;0;
39955;PMS5003;25631;51.516;-0.470;2023-04-12T04:08:11;2;2;
39955;PMS5003;25631;51.516;-0.470;2023-04-12T04:10:48;1;1;
39955;PMS5003;25631;51.516;-0.470;2023-04-12T04:13:24;2;1;
39955;PMS5003;25631;51.516;-0.470;2023-04-12T04:16:02;3;2;
39955;PMS5003;25631;51.516;-0.470;2023-04-12T04:18:40;3;1;
39955;PMS5003;25631;51.516;-0.470;2023-04-12T04:21:16;3;2;
39955;PMS5003;25631;51.516;-0.470;2023-04-12T04:23:53;3;2;
39955;PMS5003;25631;51.516;-0.470;2023-04-12T04:26:29;3;2;
39955;PMS5003;25631;51.516;-0.470;2023-04-12T04:29:06;3;2;
39955;PMS5003;25631;51.516;-0.470;2023-04-12T04:31:42;6;3;
39955;PMS5003;25631;51.516;-0.470;2023-04-12T04:34:18;13;3;
39955;PMS5003;25631;51.516;-0.470;2023-04-12T04:36:55;13;2;
39955;PMS5003;25631;51.516;-0.470;2023-04-12T04:39:31;13;2;
39955;PMS5003;25631;51.516;-0.470;2023-04-12T04:42:07;5;4;
39955;PMS5003;25631;51.516;-0.470;2023-04-12T04:44:44;3;3;
39955;PMS5003;25631;51.516;-0.470;2023-04-12T04:47:20;4;3;
39955;PMS5003;25631;51.516;-0.470;2023-04-12T04:49:58;3;2;
39955;PMS5003;25631;51.516;-0.470;2023-04-12T04:52:35;3;2;
39955;PMS5003;25631;51.516;-0.470;2023-04-12T04:55:11;2;1;
39955;PMS5003;25631;51.516;-0.470;2023-04-12T04:57:48;2;2;
39955;PMS5003;25631;51.516;-0.470;2023-04-12T05:00:24;4;2;
39955;PMS5003;25631;51.516;-0.470;2023-04-12T05:03:01;7;4;
39955;PMS5003;25631;51.516;-0.470;2023-04-12T05:05:38;7;4;
39955;PMS5003;25631;51.516;-0.470;2023-04-12T05:08:14;4;3;
39955;PMS5003;25631;51.516;-0.470;2023-04-12T05:10:51;3;2;
39955;PMS5003;25631;51.516;-0.470;2023-04-12T05:13:30;4;3;
39955;PMS5003;25631;51.516;-0.470;2023-04-12T05:16:06;6;4;
39955;PMS5003;25631;51.516;-0.470;2023-04-12T05:18:43;6;4;
39955;PMS5003;25631;51.516;-0.470;2023-04-12T05:21:20;7;5;
39955;PMS5003;25631;51.516;-0.470;2023-04-12T05:23:56;2;2;
39955;PMS5003;25631;51.516;-0.470;2023-04-12T05:26:33;2;2;
39955;PMS5003;25631;51.516;-0.470;2023-04-12T05:29:09;3;2;
39955;PMS5003;25631;51.516;-0.470;2023-04-12T05:31:45;3;2;
39955;PMS5003;25631;51.516;-0.470;2023-04-12T05:34:22;5;3;
39955;PMS5003;25631;51.516;-0.470;2023-04-12T05:36:59;4;3;
39955;PMS5003;25631;51.516;-0.470;2023-04-12T05:39:35;5;3;
39955;PMS5003;25631;51.516;-0.470;2023-04-12T05:42:12;4;4;
39955;PMS5003;25631;51.516;-0.470;2023-04-12T05:44:48;6;5;
39955;PMS5003;25631;51.516;-0.470;2023-04-12T05:47:25;6;5;
39955;PMS5003;25631;51.516;-0.470;2023-04-12T05:50:01;9;5;
39955;PMS5003;25631;51.516;-0.470;2023-04-12T05:52:38;7;5;
39955;PMS5003;25631;51.516;-0.470;2023-04-12T05:55:15;4;3;
39955;PMS5003;25631;51.516;-0.470;2023-04-12T05:57:51;4;2;
39955;PMS5003;25631;51.516;-0.470;2023-04-12T06:00:27;4;2;
39955;PMS5003;25631;51.516;-0.470;2023-04-12T06:03:04;6;5;
39955;PMS5003;25631;51.516;-0.470;2023-04-12T06:05:40;8;6;
39955;PMS5003;25631;51.516;-0.470;2023-04-12T06:08:17;6;6;
39955;PMS5003;25631;51.516;-0.470;2023-04-12T06:10:53;7;4;
39955;PMS5003;25631;51.516;-0.470;2023-04-12T06:13:30;6;3;
39955;PMS5003;25631;51.516;-0.470;2023-04-12T06:16:07;7;4;
39955;PMS5003;25631;51.516;-0.470;2023-04-12T06:18:43;9;6;
39955;PMS5003;25631;51.516;-0.470;2023-04-12T06:21:20;8;6;
39955;PMS5003;25631;51.516;-0.470;2023-04-12T06:23:57;7;5;
39955;PMS5003;25631;51.516;-0.470;2023-04-12T06:26:34;6;5;
39955;PMS5003;25631;51.516;-0.470;2023-04-12T06:29:11;7;5;
39955;PMS5003;25631;51.516;-0.470;2023-04-12T06:31:48;9;5;
39955;PMS5003;25631;51.516;-0.470;2023-04-12T06:34:25;7;5;
39955;PMS5003;25631;51.516;-0.470;2023-04-12T06:37:01;8;5;
39955;PMS5003;25631;51.516;-0.470;2023-04-12T06:39:38;8;4;
39955;PMS5003;25631;51.516;-0.470;2023-04-12T06:42:15;11;8;
39955;PMS5003;25631;51.516;-0.470;2023-04-12T06:44:52;7;5;
39955;PMS5003;25631;51.516;-0.470;2023-04-12T06:47:29;7;5;
39955;PMS5003;25631;51.516;-0.470;2023-04-12T06:50:06;7;4;
39955;PMS5003;25631;51.516;-0.470;2023-04-12T06:52:43;6;4;
39955;PMS5003;25631;51.516;-0.470;2023-04-12T06:55:20;6;4;
39955;PMS5003;25631;51.516;-0.470;2023-04-12T06:57:56;5;3;
39955;PMS5003;25631;51.516;-0.470;2023-04-12T07:00:33;5;4;
39955;PMS5003;25631;51.516;-0.470;2023-04-12T07:03:10;7;4;
39955;PMS5003;25631;51.516;-0.470;2023-04-12T07:05:47;8;4;
39955;PMS5003;25631;51.516;-0.470;2023-04-12T07:08:23;10;4;
39955;PMS5003;25631;51.516;-0.470;2023-04-12T07:11:00;6;3;
39955;PMS5003;25631;51.516;-0.470;2023-04-12T07:13:36;8;5;
39955;PMS5003;25631;51.516;-0.470;2023-04-12T07:16:13;8;4;
39955;PMS5003;25631;51.516;-0.470;2023-04-12T07:18:49;6;2;
39955;PMS5003;25631;51.516;-0.470;2023-04-12T07:21:26;4;1;
39955;PMS5003;25631;51.516;-0.470;2023-04-12T07:24:02;3;2;
39955;PMS5003;25631;51.516;-0.470;2023-04-12T07:26:39;3;2;
39955;PMS5003;25631;51.516;-0.470;2023-04-12T07:29:16;2;2;
39955;PMS5003;25631;51.516;-0.470;2023-04-12T07:31:52;5;4;
39955;PMS5003;25631;51.516;-0.470;2023-04-12T07:34:29;4;3;
39955;PMS5003;25631;51.516;-0.470;2023-04-12T07:37:05;5;4;
39955;PMS5003;25631;51.516;-0.470;2023-04-12T07:39:42;5;3;
39955;PMS5003;25631;51.516;-0.470;2023-04-12T07:42:18;5;3;
39955;PMS5003;25631;51.516;-0.470;2023-04-12T07:44:55;6;6;
39955;PMS5003;25631;51.516;-0.470;2023-04-12T07:47:31;7;5;
39955;PMS5003;25631;51.516;-0.470;2023-04-12T07:50:08;6;5;
39955;PMS5003;25631;51.516;-0.470;2023-04-12T07:52:45;9;4;
39955;PMS5003;25631;51.516;-0.470;2023-04-12T07:55:22;6;3;
39955;PMS5003;25631;51.516;-0.470;2023-04-12T07:57:58;6;5;
39955;PMS5003;25631;51.516;-0.470;2023-04-12T08:00:34;7;5;
39955;PMS5003;25631;51.516;-0.470;2023-04-12T08:03:11;4;4;
39955;PMS5003;25631;51.516;-0.470;2023-04-12T08:05:49;3;3;
39955;PMS5003;25631;51.516;-0.470;2023-04-12T08:08:27;3;2;
39955;PMS5003;25631;51.516;-0.470;2023-04-12T08:11:03;6;4;
39955;PMS5003;25631;51.516;-0.470;2023-04-12T08:13:40;6;4;
39955;PMS5003;25631;51.516;-0.470;2023-04-12T08:16:17;7;4;
39955;PMS5003;25631;51.516;-0.470;2023-04-12T08:18:53;5;2;
39955;PMS5003;25631;51.516;-0.470;2023-04-12T08:21:30;4;2;
39955;PMS5003;25631;51.516;-0.470;2023-04-12T08:24:07;5;3;
39955;PMS5003;25631;51.516;-0.470;2023-04-12T08:26:43;2;2;
39955;PMS5003;25631;51.516;-0.470;2023-04-12T08:29:20;3;3;
39955;PMS5003;25631;51.516;-0.470;2023-04-12T08:31:56;3;3;
39955;PMS5003;25631;51.516;-0.470;2023-04-12T08:34:33;3;3;
39955;PMS5003;25631;51.516;-0.470;2023-04-12T08:37:10;6;4;
39955;PMS5003;25631;51.516;-0.470;2023-04-12T08:39:46;5;3;
39955;PMS5003;25631;51.516;-0.470;2023-04-12T08:42:23;5;3;
39955;PMS5003;25631;51.516;-0.470;2023-04-12T08:45:03;4;4;
39955;PMS5003;25631;51.516;-0.470;2023-04-12T08:47:40;4;3;
39955;PMS5003;25631;51.516;-0.470;2023-04-12T08:50:18;5;4;
39955;PMS5003;25631;51.516;-0.470;2023-04-12T08:52:56;4;1;
39955;PMS5003;25631;51.516;-0.470;2023-04-12T08:55:33;4;1;
39955;PMS5003;25631;51.516;-0.470;2023-04-12T08:58:10;4;4;
39955;PMS5003;25631;51.516;-0.470;2023-04-12T09:00:49;5;4;
39955;PMS5003;25631;51.516;-0.470;2023-04-12T09:03:27;4;3;
39955;PMS5003;25631;51.516;-0.470;2023-04-12T09:06:03;5;4;
39955;PMS5003;25631;51.516;-0.470;2023-04-12T09:08:56;6;4;
39955;PMS5003;25631;51.516;-0.470;2023-04-12T09:11:34;5;4;
39955;PMS5003;25631;51.516;-0.470;2023-04-12T09:14:26;7;5;
39955;PMS5003;25631;51.516;-0.470;2023-04-12T09:17:02;8;6;
39955;PMS5003;25631;51.516;-0.470;2023-04-12T09:19:39;4;3;
39955;PMS5003;25631;51.516;-0.470;2023-04-12T09:22:15;4;3;
39955;PMS5003;25631;51.516;-0.470;2023-04-12T09:24:52;6;2;
39955;PMS5003;25631;51.516;-0.470;2023-04-12T09:27:29;8;3;
39955;PMS5003;25631;51.516;-0.470;2023-04-12T09:30:20;6;4;
39955;PMS5003;25631;51.516;-0.470;2023-04-12T09:32:56;5;4;
39955;PMS5003;25631;51.516;-0.470;2023-04-12T09:35:45;3;2;
39955;PMS5003;25631;51.516;-0.470;2023-04-12T09:38:22;5;3;
39955;PMS5003;25631;51.516;-0.470;2023-04-12T09:41:14;4;3;
39955;PMS5003;25631;51.516;-0.470;2023-04-12T09:43:52;5;2;
39955;PMS5003;25631;51.516;-0.470;2023-04-12T09:56:27;12;8;
39955;PMS5003;25631;51.516;-0.470;2023-04-12T09:59:05;6;4;
39955;PMS5003;25631;51.516;-0.470;2023-04-12T10:01:42;6;4;
39955;PMS5003;25631;51.516;-0.470;2023-04-12T10:12:35;8;4;
39955;PMS5003;25631;51.516;-0.470;2023-04-12T10:15:12;11;4;
39955;PMS5003;25631;51.516;-0.470;2023-04-12T10:17:50;9;4;
39955;PMS5003;25631;51.516;-0.470;2023-04-12T10:20:27;7;5;
39955;PMS5003;25631;51.516;-0.470;2023-04-12T10:23:04;8;6;
39955;PMS5003;25631;51.516;-0.470;2023-04-12T10:25:41;6;5;
39955;PMS5003;25631;51.516;-0.470;2023-04-12T10:28:22;7;5;
39955;PMS5003;25631;51.516;-0.470;2023-04-12T10:30:58;9;7;
39955;PMS5003;25631;51.516;-0.470;2023-04-12T10:34:01;11;5;
39955;PMS5003;25631;51.516;-0.470;2023-04-12T10:36:49;10;4;
39955;PMS5003;25631;51.516;-0.470;2023-04-12T10:39:34;8;5;
39955;PMS5003;25631;51.516;-0.470;2023-04-12T10:52:20;6;4;
39955;PMS5003;25631;51.516;-0.470;2023-04-12T10:54:56;8;5;
39955;PMS5003;25631;51.516;-0.470;2023-04-12T10:58:01;6;4;
39955;PMS5003;25631;51.516;-0.470;2023-04-12T11:01:10;4;4;
39955;PMS5003;25631;51.516;-0.470;2023-04-12T11:04:20;5;4;
39955;PMS5003;25631;51.516;-0.470;2023-04-12T11:06:58;5;4;
39955;PMS5003;25631;51.516;-0.470;2023-04-12T11:09:38;7;4;
39955;PMS5003;25631;51.516;-0.470;2023-04-12T11:12:17;8;5;
39955;PMS5003;25631;51.516;-0.470;2023-04-12T11:14:55;8;7;
39955;PMS5003;25631;51.516;-0.470;2023-04-12T11:17:35;7;7;
39955;PMS5003;25631;51.516;-0.470;2023-04-12T11:20:11;8;7;
39955;PMS5003;25631;51.516;-0.470;2023-04-12T11:22:48;5;4;
39955;PMS5003;25631;51.516;-0.470;2023-04-12T11:25:27;6;4;
39955;PMS5003;25631;51.516;-0.470;2023-04-12T11:28:04;10;5;
39955;PMS5003;25631;51.516;-0.470;2023-04-12T11:30:47;12;6;
39955;PMS5003;25631;51.516;-0.470;2023-04-12T11:33:33;10;7;
39955;PMS5003;25631;51.516;-0.470;2023-04-12T11:36:11;2;2;
39955;PMS5003;25631;51.516;-0.470;2023-04-12T11:38:47;3;2;
39955;PMS5003;25631;51.516;-0.470;2023-04-12T11:41:24;3;2;
39955;PMS5003;25631;51.516;-0.470;2023-04-12T11:44:01;5;2;
39955;PMS5003;25631;51.516;-0.470;2023-04-12T11:46:38;5;3;
39955;PMS5003;25631;51.516;-0.470;2023-04-12T11:49:17;2;1;
39955;PMS5003;25631;51.516;-0.470;2023-04-12T11:52:03;4;3;
39955;PMS5003;25631;51.516;-0.470;2023-04-12T11:54:41;3;3;
39955;PMS5003;25631;51.516;-0.470;2023-04-12T11:57:18;1;1;
39955;PMS5003;25631;51.516;-0.470;2023-04-12T11:59:55;2;2;
39955;PMS5003;25631;51.516;-0.470;2023-04-12T12:02:33;2;2;
39955;PMS5003;25631;51.516;-0.470;2023-04-12T12:05:09;2;1;
39955;PMS5003;25631;51.516;-0.470;2023-04-12T12:07:46;3;2;
39955;PMS5003;25631;51.516;-0.470;2023-04-12T12:10:23;3;2;
39955;PMS5003;25631;51.516;-0.470;2023-04-12T12:12:59;1;1;
39955;PMS5003;25631;51.516;-0.470;2023-04-12T12:15:35;2;2;
39955;PMS5003;25631;51.516;-0.470;2023-04-12T12:18:12;3;3;
39955;PMS5003;25631;51.516;-0.470;2023-04-12T12:20:48;2;2;
39955;PMS5003;25631;51.516;-0.470;2023-04-12T12:23:26;3;2;
39955;PMS5003;25631;51.516;-0.470;2023-04-12T12:26:04;3;2;
39955;PMS5003;25631;51.516;-0.470;2023-04-12T12:28:41;3;3;
39955;PMS5003;25631;51.516;-0.470;2023-04-12T12:31:18;3;3;
39955;PMS5003;25631;51.516;-0.470;2023-04-12T12:33:56;3;3;
39955;PMS5003;25631;51.516;-0.470;2023-04-12T12:36:34;1;1;
39955;PMS5003;25631;51.516;-0.470;2023-04-12T12:39:11;1;1;
39955;PMS5003;25631;51.516;-0.470;2023-04-12T12:41:52;0;0;
39955;PMS5003;25631;51.516;-0.470;2023-04-12T12:44:29;1;1;
39955;PMS5003;25631;51.516;-0.470;2023-04-12T12:47:06;2;2;
39955;PMS5003;25631;51.516;-0.470;2023-04-12T12:49:42;4;3;
39955;PMS5003;25631;51.516;-0.470;2023-04-12T12:52:19;4;3;
39955;PMS5003;25631;51.516;-0.470;2023-04-12T12:54:56;3;3;
39955;PMS5003;25631;51.516;-0.470;2023-04-12T12:57:32;2;2;
39955;PMS5003;25631;51.516;-0.470;2023-04-12T13:00:09;2;2;
39955;PMS5003;25631;51.516;-0.470;2023-04-12T13:02:47;3;2;
39955;PMS5003;25631;51.516;-0.470;2023-04-12T13:05:24;2;2;
39955;PMS5003;25631;51.516;-0.470;2023-04-12T13:08:01;1;1;
39955;PMS5003;25631;51.516;-0.470;2023-04-12T13:10:37;1;1;
39955;PMS5003;25631;51.516;-0.470;2023-04-12T13:13:14;1;1;
39955;PMS5003;25631;51.516;-0.470;2023-04-12T13:15:51;1;1;
39955;PMS5003;25631;51.516;-0.470;2023-04-12T13:18:27;2;1;
39955;PMS5003;25631;51.516;-0.470;2023-04-12T13:21:04;2;1;
39955;PMS5003;25631;51.516;-0.470;2023-04-12T13:23:41;2;1;
39955;PMS5003;25631;51.516;-0.470;2023-04-12T13:26:18;0;0;
39955;PMS5003;25631;51.516;-0.470;2023-04-12T13:28:54;0;0;
39955;PMS5003;25631;51.516;-0.470;2023-04-12T13:31:30;2;1;
39955;PMS5003;25631;51.516;-0.470;2023-04-12T13:34:07;1;1;
39955;PMS5003;25631;51.516;-0.470;2023-04-12T13:36:44;3;2;
39955;PMS5003;25631;51.516;-0.470;2023-04-12T13:39:20;3;2;
39955;PMS5003;25631;51.516;-0.470;2023-04-12T13:41:57;3;2;
39955;PMS5003;25631;51.516;-0.470;2023-04-12T13:44:33;1;1;
39955;PMS5003;25631;51.516;-0.470;2023-04-12T13:47:10;2;2;
39955;PMS5003;25631;51.516;-0.470;2023-04-12T13:49:46;2;2;
39955;PMS5003;25631;51.516;-0.470;2023-04-12T13:52:23;1;1;
39955;PMS5003;25631;51.516;-0.470;2023-04-12T13:55:00;1;1;
39955;PMS5003;25631;51.516;-0.470;2023-04-12T13:57:36;1;1;
39955;PMS5003;25631;51.516;-0.470;2023-04-12T14:00:13;2;2;
39955;PMS5003;25631;51.516;-0.470;2023-04-12T14:02:50;2;2;
39955;PMS5003;25631;51.516;-0.470;2023-04-12T14:05:27;3;3;
39955;PMS5003;25631;51.516;-0.470;2023-04-12T14:08:03;3;3;
39955;PMS5003;25631;51.516;-0.470;2023-04-12T14:10:40;6;6;
39955;PMS5003;25631;51.516;-0.470;2023-04-12T14:13:16;6;6;
39955;PMS5003;25631;51.516;-0.470;2023-04-12T14:15:53;5;5;
39955;PMS5003;25631;51.516;-0.470;2023-04-12T14:18:30;1;0;
39955;PMS5003;25631;51.516;-0.470;2023-04-12T14:21:07;1;0;
39955;PMS5003;25631;51.516;-0.470;2023-04-12T14:23:44;1;0;
39955;PMS5003;25631;51.516;-0.470;2023-04-12T14:26:20;5;2;
39955;PMS5003;25631;51.516;-0.470;2023-04-12T14:28:57;2;2;
39955;PMS5003;25631;51.516;-0.470;2023-04-12T14:31:33;2;1;
39955;PMS5003;25631;51.516;-0.470;2023-04-12T14:34:10;1;1;
39955;PMS5003;25631;51.516;-0.470;2023-04-12T14:36:47;1;1;
39955;PMS5003;25631;51.516;-0.470;2023-04-12T14:39:23;4;1;
39955;PMS5003;25631;51.516;-0.470;2023-04-12T14:42:00;3;1;
39955;PMS5003;25631;51.516;-0.470;2023-04-12T14:44:37;2;1;
39955;PMS5003;25631;51.516;-0.470;2023-04-12T14:47:13;3;2;
39955;PMS5003;25631;51.516;-0.470;2023-04-12T14:49:50;2;1;
39955;PMS5003;25631;51.516;-0.470;2023-04-12T14:52:27;2;2;
39955;PMS5003;25631;51.516;-0.470;2023-04-12T14:55:04;2;2;
39955;PMS5003;25631;51.516;-0.470;2023-04-12T14:57:41;2;2;
39955;PMS5003;25631;51.516;-0.470;2023-04-12T15:00:17;2;1;
39955;PMS5003;25631;51.516;-0.470;2023-04-12T15:02:55;2;1;
39955;PMS5003;25631;51.516;-0.470;2023-04-12T15:05:31;3;2;
39955;PMS5003;25631;51.516;-0.470;2023-04-12T15:08:07;2;2;
39955;PMS5003;25631;51.516;-0.470;2023-04-12T15:10:44;2;1;
39955;PMS5003;25631;51.516;-0.470;2023-04-12T15:13:20;1;1;
39955;PMS5003;25631;51.516;-0.470;2023-04-12T15:15:57;1;1;
39955;PMS5003;25631;51.516;-0.470;2023-04-12T15:18:33;2;2;
39955;PMS5003;25631;51.516;-0.470;2023-04-12T15:21:10;2;2;
39955;PMS5003;25631;51.516;-0.470;2023-04-12T15:23:47;2;2;
39955;PMS5003;25631;51.516;-0.470;2023-04-12T15:26:24;6;6;
39955;PMS5003;25631;51.516;-0.470;2023-04-12T15:29:01;6;6;
39955;PMS5003;25631;51.516;-0.470;2023-04-12T15:31:37;6;6;
39955;PMS5003;25631;51.516;-0.470;2023-04-12T15:34:15;2;2;
39955;PMS5003;25631;51.516;-0.470;2023-04-12T15:36:52;2;2;
39955;PMS5003;25631;51.516;-0.470;2023-04-12T15:39:29;0;0;
39955;PMS5003;25631;51.516;-0.470;2023-04-12T15:42:05;0;0;
39955;PMS5003;25631;51.516;-0.470;2023-04-12T15:44:42;0;0;
39955;PMS5003;25631;51.516;-0.470;2023-04-12T15:47:24;0;0;
39955;PMS5003;25631;51.516;-0.470;2023-04-12T15:50:01;0;0;
39955;PMS5003;25631;51.516;-0.470;2023-04-12T15:52:38;2;2;
39955;PMS5003;25631;51.516;-0.470;2023-04-12T15:55:15;2;2;
39955;PMS5003;25631;51.516;-0.470;2023-04-12T15:57:51;2;2;
39955;PMS5003;25631;51.516;-0.470;2023-04-12T16:00:28;1;1;
39955;PMS5003;25631;51.516;-0.470;2023-04-12T16:03:04;1;1;
39955;PMS5003;25631;51.516;-0.470;2023-04-12T16:05:41;1;1;
39955;PMS5003;25631;51.516;-0.470;2023-04-12T16:08:17;1;1;
39955;PMS5003;25631;51.516;-0.470;2023-04-12T16:10:54;0;0;
39955;PMS5003;25631;51.516;-0.470;2023-04-12T16:13:31;1;1;
39955;PMS5003;25631;51.516;-0.470;2023-04-12T16:16:11;0;0;
39955;PMS5003;25631;51.516;-0.470;2023-04-12T16:18:48;1;1;
39955;PMS5003;25631;51.516;-0.470;2023-04-12T16:21:24;1;1;
39955;PMS5003;25631;51.516;-0.470;2023-04-12T16:24:01;0;0;
39955;PMS5003;25631;51.516;-0.470;2023-04-12T16:26:37;1;1;
39955;PMS5003;25631;51.516;-0.470;2023-04-12T16:29:14;1;1;
39955;PMS5003;25631;51.516;-0.470;2023-04-12T16:31:50;1;1;
39955;PMS5003;25631;51.516;-0.470;2023-04-12T16:34:27;3;2;
39955;PMS5003;25631;51.516;-0.470;2023-04-12T16:37:03;4;2;
39955;PMS5003;25631;51.516;-0.470;2023-04-12T16:39:40;1;1;
39955;PMS5003;25631;51.516;-0.470;2023-04-12T16:42:16;1;1;
39955;PMS5003;25631;51.516;-0.470;2023-04-12T16:44:53;1;1;
39955;PMS5003;25631;51.516;-0.470;2023-04-12T16:47:29;0;0;
39955;PMS5003;25631;51.516;-0.470;2023-04-12T16:50:06;1;0;
39955;PMS5003;25631;51.516;-0.470;2023-04-12T16:52:43;1;1;
39955;PMS5003;25631;51.516;-0.470;2023-04-12T16:55:20;1;1;
39955;PMS5003;25631;51.516;-0.470;2023-04-12T16:57:56;1;1;
39955;PMS5003;25631;51.516;-0.470;2023-04-12T17:00:32;1;1;
39955;PMS5003;25631;51.516;-0.470;2023-04-12T17:03:10;1;1;
39955;PMS5003;25631;51.516;-0.470;2023-04-12T17:05:47;1;1;
39955;PMS5003;25631;51.516;-0.470;2023-04-12T17:08:24;0;0;
39955;PMS5003;25631;51.516;-0.470;2023-04-12T17:11:01;0;0;
39955;PMS5003;25631;51.516;-0.470;2023-04-12T17:13:38;0;0;
39955;PMS5003;25631;51.516;-0.470;2023-04-12T17:16:15;0;0;
39955;PMS5003;25631;51.516;-0.470;2023-04-12T17:18:51;0;0;
39955;PMS5003;25631;51.516;-0.470;2023-04-12T17:21:27;1;0;
39955;PMS5003;25631;51.516;-0.470;2023-04-12T17:24:04;0;0;
39955;PMS5003;25631;51.516;-0.470;2023-04-12T17:26:41;1;0;
39955;PMS5003;25631;51.516;-0.470;2023-04-12T17:29:17;0;0;
39955;PMS5003;25631;51.516;-0.470;2023-04-12T17:31:53;0;0;
39955;PMS5003;25631;51.516;-0.470;2023-04-12T17:34:30;1;0;
39955;PMS5003;25631;51.516;-0.470;2023-04-12T17:37:06;1;0;
39955;PMS5003;25631;51.516;-0.470;2023-04-12T17:39:43;1;0;
39955;PMS5003;25631;51.516;-0.470;2023-04-12T17:42:20;0;0;
39955;PMS5003;25631;51.516;-0.470;2023-04-12T17:44:56;0;0;
39955;PMS5003;25631;51.516;-0.470;2023-04-12T17:47:33;0;0;
39955;PMS5003;25631;51.516;-0.470;2023-04-12T17:50:10;0;0;
39955;PMS5003;25631;51.516;-0.470;2023-04-12T17:52:46;0;0;
39955;PMS5003;25631;51.516;-0.470;2023-04-12T17:55:23;0;0;
39955;PMS5003;25631;51.516;-0.470;2023-04-12T17:57:59;0;0;
39955;PMS5003;25631;51.516;-0.470;2023-04-12T18:00:36;1;0;
39955;PMS5003;25631;51.516;-0.470;2023-04-12T18:03:12;1;0;
39955;PMS5003;25631;51.516;-0.470;2023-04-12T18:05:49;1;0;
39955;PMS5003;25631;51.516;-0.470;2023-04-12T18:08:25;0;0;
39955;PMS5003;25631;51.516;-0.470;2023-04-12T18:11:02;0;0;